Time;durP1;ratioP1;P1;durP2;ratioP2;P2;SDS_P1;SDS_P2;PMS_P1;PMS_P2;Temp;Humidity;BMP_temperature;BMP_pressure;BME280_temperature;BME280_humidity;BME280_pressure;Samples;Min_cycle;Max_cycle;Signal;HPM_P1;HPM_P2
2023/10/02 00:00:19;;;;;;;27.15;13.73;;;;;;;;;;2076309;28;20029;-75
2023/10/02 00:01:41;;;;;;;30.33;15.57;;;;;;;;;;2074781;28;20064;-79
2023/10/02 00:03:02;;;;;;;25.58;14.73;;;;;;;;;;2080492;28;20029;-79
2023/10/02 00:04:24;;;;;;;32.47;16.60;;;;;;;;;;2076892;28;20099;-80
2023/10/02 00:05:50;;;;;;;35.63;16.33;;;;;;;;;;2075254;28;20441;-80
2023/10/02 00:07:16;;;;;;;30.23;15.10;;;;;;;;;;2064974;28;20034;-77
2023/10/02 00:08:42;;;;;;;32.38;15.48;;;;;;;;;;2068704;28;20110;-78
2023/10/02 00:10:04;;;;;;;32.25;15.63;;;;;;;;;;2072951;28;20034;-80
2023/10/02 00:11:37;;;;;;;32.13;15.00;;;;;;;;;;2077529;28;20046;-80
2023/10/02 00:13:01;;;;;;;32.58;16.35;;;;;;;;;;2082280;28;20041;-80
2023/10/02 00:14:22;;;;;;;32.00;15.45;;;;;;;;;;2075563;28;20033;-79
2023/10/02 00:15:44;;;;;;;32.60;13.90;;;;;;;;;;2083484;28;20435;-78
2023/10/02 00:17:08;;;;;;;28.00;13.52;;;;;;;;;;2090465;28;20029;-80
2023/10/02 00:18:28;;;;;;;29.63;14.25;;;;;;;;;;2081198;28;20041;-78
2023/10/02 00:19:52;;;;;;;29.73;14.50;;;;;;;;;;2078659;28;20044;-80
2023/10/02 00:21:19;;;;;;;28.70;14.50;;;;;;;;;;2079818;28;20029;-80
2023/10/02 00:22:43;;;;;;;31.63;14.80;;;;;;;;;;2080359;28;20040;-79
2023/10/02 00:24:06;;;;;;;27.52;13.32;;;;;;;;;;2078303;28;20349;-78
2023/10/02 00:25:27;;;;;;;26.30;13.45;;;;;;;;;;2080035;28;20508;-70
2023/10/02 00:26:48;;;;;;;28.55;13.10;;;;;;;;;;2080969;28;20030;-68
2023/10/02 00:28:10;;;;;;;28.27;13.30;;;;;;;;;;2081210;28;20029;-69
2023/10/02 00:29:31;;;;;;;;;;;;;;;;;;2080925;28;20048;-68
2023/10/02 00:30:52;;;;;;;32.63;14.35;;;;;;;;;;2088075;28;19923;-68
2023/10/02 00:32:15;;;;;;;25.90;13.07;;;;;;;;;;2084838;28;20515;-68
2023/10/02 00:33:36;;;;;;;27.27;13.80;;;;;;;;;;2081469;28;20033;-69
2023/10/02 00:35:00;;;;;;;28.05;13.10;;;;;;;;;;2080163;28;20030;-70
2023/10/02 00:36:22;;;;;;;28.17;12.98;;;;;;;;;;2087462;28;20057;-68
2023/10/02 00:37:52;;;;;;;27.30;14.30;;;;;;;;;;2083279;28;20037;-70
2023/10/02 00:39:25;;;;;;;29.92;13.45;;;;;;;;;;2081472;28;20504;-68
2023/10/02 00:40:46;;;;;;;28.52;13.70;;;;;;;;;;2086103;28;20074;-71
2023/10/02 00:42:16;;;;;;;31.55;14.43;;;;;;;;;;2083020;28;20090;-69
2023/10/02 00:43:45;;;;;;;26.38;12.55;;;;;;;;;;2085628;28;20064;-72
2023/10/02 00:45:08;;;;;;;25.88;12.88;;;;;;;;;;2081768;28;20092;-68
2023/10/02 00:46:34;;;;;;;29.02;13.50;;;;;;;;;;2080015;28;20041;-69
2023/10/02 00:48:24;;;;;;;27.27;12.55;;;;;;;;;;2084053;28;20033;-68
2023/10/02 00:49:36;;;;;;;23.67;12.75;;;;;;;;;;2078042;28;20060;-68
2023/10/02 00:51:00;;;;;;;30.92;14.15;;;;;;;;;;2080464;28;20025;-68
2023/10/02 00:52:21;;;;;;;25.77;13.85;;;;;;;;;;2078728;28;20678;-68
2023/10/02 00:53:48;;;;;;;28.50;13.60;;;;;;;;;;2084670;28;20041;-70
2023/10/02 00:55:10;;;;;;;28.40;13.05;;;;;;;;;;2085393;28;20041;-68
2023/10/02 00:56:31;;;;;;;25.42;13.35;;;;;;;;;;2083065;28;20059;-69
2023/10/02 00:57:56;;;;;;;30.17;13.80;;;;;;;;;;2081258;28;20353;-70
2023/10/02 00:59:23;;;;;;;28.75;12.90;;;;;;;;;;2081666;28;20362;-70
2023/10/02 01:00:48;;;;;;;28.63;13.63;;;;;;;;;;2081510;28;20894;-70
2023/10/02 01:02:11;;;;;;;26.38;12.63;;;;;;;;;;2080564;28;20041;-69
2023/10/02 01:04:06;;;;;;;27.08;12.75;;;;;;;;;;2073649;28;20164;-71
2023/10/02 01:05:16;;;;;;;28.45;12.10;;;;;;;;;;2081744;28;20064;-69
2023/10/02 01:06:54;;;;;;;30.42;12.63;;;;;;;;;;2081522;28;20397;-68
2023/10/02 01:08:42;;;;;;;26.33;12.95;;;;;;;;;;2079949;28;20029;-71
2023/10/02 01:10:07;;;;;;;31.65;13.00;;;;;;;;;;2084385;28;20432;-68
2023/10/02 01:11:28;;;;;;;30.05;13.52;;;;;;;;;;2082196;28;20064;-68
2023/10/02 01:12:50;;;;;;;27.42;14.10;;;;;;;;;;2080534;28;20448;-68
2023/10/02 01:14:11;;;;;;;23.55;12.38;;;;;;;;;;2079642;28;20048;-69
2023/10/02 01:15:32;;;;;;;23.85;10.88;;;;;;;;;;2090389;28;20114;-68
2023/10/02 01:16:54;;;;;;;26.88;11.70;;;;;;;;;;2090873;28;20393;-68
2023/10/02 01:18:21;;;;;;;25.98;11.38;;;;;;;;;;2072511;28;20038;-68
2023/10/02 01:19:54;;;;;;;25.17;11.95;;;;;;;;;;2086512;28;20029;-69
2023/10/02 01:21:18;;;;;;;25.67;11.45;;;;;;;;;;2083269;28;20045;-68
2023/10/02 01:22:42;;;;;;;27.58;12.55;;;;;;;;;;2081028;28;20480;-69
2023/10/02 01:24:16;;;;;;;26.65;11.57;;;;;;;;;;2073585;28;20029;-68
2023/10/02 01:25:39;;;;;;;22.30;11.75;;;;;;;;;;2095973;28;20074;-68
2023/10/02 01:27:00;;;;;;;22.45;10.48;;;;;;;;;;2085907;28;20163;-68
2023/10/02 01:28:25;;;;;;;25.33;12.25;;;;;;;;;;2081795;28;20045;-69
2023/10/02 01:30:13;;;;;;;25.50;12.50;;;;;;;;;;2082277;28;20088;-69
2023/10/02 01:31:36;;;;;;;20.95;10.82;;;;;;;;;;2087859;28;20044;-68
2023/10/02 01:34:39;;;;;;;;;;;;;;;;;;2087768;28;20492;-68
2023/10/02 01:36:02;;;;;;;25.92;11.15;;;;;;;;;;2083804;28;19921;-73
2023/10/02 01:37:35;;;;;;;21.88;10.98;;;;;;;;;;2082566;28;20029;-74
2023/10/02 01:38:59;;;;;;;26.92;11.55;;;;;;;;;;2081759;28;20446;-74
2023/10/02 01:40:33;;;;;;;24.45;10.68;;;;;;;;;;2093723;28;20115;-74
2023/10/02 01:41:54;;;;;;;23.67;12.15;;;;;;;;;;2076620;28;20401;-74
2023/10/02 01:43:16;;;;;;;24.02;11.18;;;;;;;;;;2077044;28;20038;-73
2023/10/02 01:44:54;;;;;;;28.00;12.90;;;;;;;;;;2072432;28;20105;-74
2023/10/02 01:46:17;;;;;;;26.25;11.55;;;;;;;;;;2073857;28;20030;-74
2023/10/02 01:47:41;;;;;;;23.40;11.65;;;;;;;;;;2063328;28;20038;-74
2023/10/02 01:49:02;;;;;;;25.52;11.70;;;;;;;;;;2068553;28;20123;-74
2023/10/02 01:50:24;;;;;;;26.20;12.02;;;;;;;;;;2071772;28;20381;-74
2023/10/02 01:51:50;;;;;;;19.40;9.82;;;;;;;;;;2073307;28;20489;-74
2023/10/02 01:53:29;;;;;;;24.50;11.18;;;;;;;;;;2074993;28;20041;-74
2023/10/02 01:54:51;;;;;;;23.17;9.95;;;;;;;;;;2074208;28;20520;-74
2023/10/02 01:56:12;;;;;;;19.38;9.63;;;;;;;;;;2064939;28;20081;-74
2023/10/02 01:57:34;;;;;;;20.73;10.47;;;;;;;;;;2080627;28;20535;-74
2023/10/02 01:59:08;;;;;;;;;;;;;;;;;;2075393;28;20030;-73
2023/10/02 02:00:29;;;;;;;22.15;11.65;;;;;;;;;;2077528;28;20390;-72
2023/10/02 02:01:54;;;;;;;24.05;11.30;;;;;;;;;;2090103;28;20048;-73
2023/10/02 02:03:15;;;;;;;24.05;11.32;;;;;;;;;;2083769;28;20469;-74
2023/10/02 02:04:36;;;;;;;25.00;13.07;;;;;;;;;;2075001;28;20037;-74
2023/10/02 02:05:56;;;;;;;20.83;10.07;;;;;;;;;;2082257;28;20025;-74
2023/10/02 02:07:20;;;;;;;23.10;10.35;;;;;;;;;;2076692;28;20121;-74
2023/10/02 02:08:44;;;;;;;26.65;11.20;;;;;;;;;;2079850;28;20034;-74
2023/10/02 02:10:06;;;;;;;22.52;11.13;;;;;;;;;;2081418;28;20038;-74
2023/10/02 02:11:30;;;;;;;23.08;11.68;;;;;;;;;;2088117;28;20045;-73
2023/10/02 02:12:55;;;;;;;25.73;11.02;;;;;;;;;;2086240;28;20117;-74
2023/10/02 02:14:18;;;;;;;23.17;11.15;;;;;;;;;;2090179;28;21364;-73
2023/10/02 02:15:44;;;;;;;20.55;10.27;;;;;;;;;;2082584;28;20574;-74
2023/10/02 02:17:05;;;;;;;21.55;9.90;;;;;;;;;;2081646;28;20041;-73
2023/10/02 02:18:26;;;;;;;20.80;10.32;;;;;;;;;;2081085;28;20098;-73
2023/10/02 02:19:50;;;;;;;21.57;10.37;;;;;;;;;;2085175;28;20488;-74
2023/10/02 02:21:15;;;;;;;25.10;12.15;;;;;;;;;;2084885;28;20107;-72
2023/10/02 02:22:37;;;;;;;24.85;11.27;;;;;;;;;;2083668;28;20045;-74
2023/10/02 02:24:03;;;;;;;23.77;11.23;;;;;;;;;;2085111;28;20123;-74
2023/10/02 02:25:26;;;;;;;23.17;12.23;;;;;;;;;;2087202;28;20029;-74
2023/10/02 02:26:47;;;;;;;22.33;10.50;;;;;;;;;;2093986;28;20033;-74
2023/10/02 02:28:09;;;;;;;28.02;11.85;;;;;;;;;;2085558;28;20036;-74
2023/10/02 02:29:30;;;;;;;21.13;10.98;;;;;;;;;;2087661;28;20033;-74
2023/10/02 02:30:51;;;;;;;26.77;11.75;;;;;;;;;;2082514;28;20021;-73
2023/10/02 02:32:12;;;;;;;26.95;12.43;;;;;;;;;;2077127;28;20744;-74
2023/10/02 02:33:38;;;;;;;23.30;11.30;;;;;;;;;;2077049;28;20038;-73
2023/10/02 02:35:03;;;;;;;23.88;10.80;;;;;;;;;;2076666;28;20041;-74
2023/10/02 02:36:25;;;;;;;27.75;11.25;;;;;;;;;;2075204;28;20045;-73
2023/10/02 02:37:49;;;;;;;26.73;10.60;;;;;;;;;;2070780;28;20033;-74
2023/10/02 02:39:16;;;;;;;27.33;12.00;;;;;;;;;;2082651;28;20496;-74
2023/10/02 02:40:39;;;;;;;24.13;12.30;;;;;;;;;;2077114;28;20087;-73
2023/10/02 02:42:09;;;;;;;25.30;11.20;;;;;;;;;;2069687;28;20168;-74
2023/10/02 02:43:30;;;;;;;28.50;11.57;;;;;;;;;;2074688;28;20029;-74
2023/10/02 02:44:51;;;;;;;27.63;12.17;;;;;;;;;;2074020;28;20034;-74
2023/10/02 02:46:17;;;;;;;24.27;11.45;;;;;;;;;;2065371;28;20456;-74
2023/10/02 02:47:51;;;;;;;26.05;11.50;;;;;;;;;;2075613;28;20132;-74
2023/10/02 02:49:11;;;;;;;27.23;11.75;;;;;;;;;;2072259;28;20188;-73
2023/10/02 02:50:36;;;;;;;25.33;12.32;;;;;;;;;;2075331;28;20026;-73
2023/10/02 02:51:58;;;;;;;26.65;11.93;;;;;;;;;;2081089;28;20491;-74
2023/10/02 02:53:23;;;;;;;;;;;;;;;;;;2092451;28;20497;-73
2023/10/02 02:54:44;;;;;;;32.35;11.82;;;;;;;;;;2082673;28;19939;-73
2023/10/02 02:56:18;;;;;;;22.38;10.77;;;;;;;;;;2090957;28;20078;-74
2023/10/02 02:57:39;;;;;;;22.25;11.63;;;;;;;;;;2085941;28;20507;-74
2023/10/02 02:59:02;;;;;;;27.00;11.85;;;;;;;;;;2085735;28;20037;-74
2023/10/02 03:00:32;;;;;;;25.38;11.13;;;;;;;;;;2084465;28;20037;-75
2023/10/02 03:02:08;;;;;;;24.05;10.45;;;;;;;;;;2090854;28;20083;-73
2023/10/02 03:03:41;;;;;;;27.33;10.88;;;;;;;;;;2085309;28;20048;-74
2023/10/02 03:05:04;;;;;;;;;;;;;;;;;;2083487;28;20025;-73
2023/10/02 03:06:24;;;;;;;24.35;10.30;;;;;;;;;;2076735;28;19969;-74
2023/10/02 03:07:48;;;;;;;24.27;11.55;;;;;;;;;;2080210;28;21398;-74
2023/10/02 03:09:09;;;;;;;26.75;11.85;;;;;;;;;;2086188;28;20029;-73
2023/10/02 03:10:36;;;;;;;24.95;11.88;;;;;;;;;;2081388;28;20534;-73
2023/10/02 03:11:57;;;;;;;26.33;11.20;;;;;;;;;;2075973;28;20791;-73
2023/10/02 03:13:18;;;;;;;27.77;11.48;;;;;;;;;;2079107;28;20087;-74
2023/10/02 03:14:39;;;;;;;23.67;11.18;;;;;;;;;;2077709;28;20038;-73
2023/10/02 03:16:08;;;;;;;23.13;12.00;;;;;;;;;;2076673;28;20148;-73
2023/10/02 03:17:29;;;;;;;25.95;12.77;;;;;;;;;;2074785;28;20481;-73
2023/10/02 03:18:54;;;;;;;24.10;11.80;;;;;;;;;;2074912;28;20041;-73
2023/10/02 03:20:24;;;;;;;27.13;11.65;;;;;;;;;;2078051;28;20095;-73
2023/10/02 03:21:47;;;;;;;33.25;11.82;;;;;;;;;;2064458;28;20517;-72
2023/10/02 03:23:11;;;;;;;29.88;11.73;;;;;;;;;;2071293;28;20379;-72
2023/10/02 03:24:33;;;;;;;25.45;10.88;;;;;;;;;;2073379;28;20045;-72
2023/10/02 03:25:57;;;;;;;30.35;13.43;;;;;;;;;;2072417;28;20037;-74
2023/10/02 03:27:19;;;;;;;25.10;11.45;;;;;;;;;;2075963;28;20511;-73
2023/10/02 03:28:41;;;;;;;26.20;11.13;;;;;;;;;;2077603;28;20033;-74
2023/10/02 03:30:06;;;;;;;;;;;;;;;;;;2076682;28;20034;-73
2023/10/02 03:31:36;;;;;;;28.27;11.95;;;;;;;;;;2072070;28;20357;-73
2023/10/02 03:32:57;;;;;;;25.42;11.55;;;;;;;;;;2066823;28;20128;-72
2023/10/02 03:34:27;;;;;;;28.65;12.63;;;;;;;;;;2069376;28;20061;-72
2023/10/02 03:35:58;;;;;;;24.27;10.50;;;;;;;;;;2074393;28;20107;-72
2023/10/02 03:37:21;;;;;;;24.83;10.60;;;;;;;;;;2073640;28;20179;-73
2023/10/02 03:38:43;;;;;;;28.15;10.85;;;;;;;;;;2073125;28;20037;-73
2023/10/02 03:40:14;;;;;;;27.08;10.65;;;;;;;;;;2073299;28;20045;-73
2023/10/02 03:41:44;;;;;;;27.73;11.57;;;;;;;;;;2077888;28;20036;-73
2023/10/02 03:43:19;;;;;;;20.42;9.73;;;;;;;;;;2073937;28;20034;-73
2023/10/02 03:44:40;;;;;;;22.27;10.48;;;;;;;;;;2073571;28;20025;-73
2023/10/02 03:46:06;;;;;;;30.08;12.10;;;;;;;;;;2082602;28;20030;-73
2023/10/02 03:47:30;;;;;;;23.48;9.65;;;;;;;;;;2088958;28;20032;-73
2023/10/02 03:48:58;;;;;;;27.17;12.07;;;;;;;;;;2094533;28;20021;-73
2023/10/02 03:50:19;;;;;;;24.95;11.20;;;;;;;;;;2082895;28;20053;-73
2023/10/02 03:51:40;;;;;;;25.55;10.70;;;;;;;;;;2078134;28;20048;-72
2023/10/02 03:53:12;;;;;;;24.88;10.65;;;;;;;;;;2081243;28;20033;-73
2023/10/02 03:54:34;;;;;;;24.53;10.27;;;;;;;;;;2088811;28;20029;-73
2023/10/02 03:55:59;;;;;;;;;;;;;;;;;;2083418;28;20496;-69
2023/10/02 03:59:00;;;;;;;25.70;10.63;;;;;;;;;;2079520;28;20374;-69
2023/10/02 04:00:24;;;;;;;26.00;10.43;;;;;;;;;;2080794;28;20025;-70
2023/10/02 04:01:47;;;;;;;22.35;10.85;;;;;;;;;;2080066;28;20041;-69
2023/10/02 04:03:08;;;;;;;20.55;10.35;;;;;;;;;;2080919;28;20484;-69
2023/10/02 04:04:32;;;;;;;25.03;10.60;;;;;;;;;;2088617;28;20025;-70
2023/10/02 04:05:55;;;;;;;29.50;12.05;;;;;;;;;;2082045;28;20212;-69
2023/10/02 04:07:17;;;;;;;26.40;11.88;;;;;;;;;;2074948;28;20557;-69
2023/10/02 04:08:38;;;;;;;24.95;11.45;;;;;;;;;;2080909;28;20046;-70
2023/10/02 04:10:00;;;;;;;19.83;10.20;;;;;;;;;;2082967;28;20446;-72
2023/10/02 04:11:21;;;;;;;29.77;11.68;;;;;;;;;;2085214;28;20075;-69
2023/10/02 04:12:50;;;;;;;24.90;11.02;;;;;;;;;;2087300;28;20507;-69
2023/10/02 04:14:17;;;;;;;24.60;10.13;;;;;;;;;;2074864;28;20053;-69
2023/10/02 04:15:43;;;;;;;23.70;11.27;;;;;;;;;;2080988;28;20045;-69
2023/10/02 04:18:47;;;;;;;22.63;10.10;;;;;;;;;;2079191;28;20036;-69
2023/10/02 04:20:24;;;;;;;25.88;10.85;;;;;;;;;;2082410;28;20033;-69
2023/10/02 04:21:45;;;;;;;25.30;10.93;;;;;;;;;;2089448;28;20079;-69
2023/10/02 04:23:21;;;;;;;28.13;10.55;;;;;;;;;;2071714;28;20033;-68
2023/10/02 04:24:53;;;;;;;28.45;11.00;;;;;;;;;;2080862;28;20182;-69
2023/10/02 04:26:19;;;;;;;26.05;10.82;;;;;;;;;;2089294;28;20029;-70
2023/10/02 04:30:45;;;;;;;24.88;10.95;;;;;;;;;;2080945;28;20098;-72
2023/10/02 04:32:15;;;;;;;22.15;11.00;;;;;;;;;;2072582;28;20183;-69
2023/10/02 04:33:38;;;;;;;26.65;11.00;;;;;;;;;;2075927;28;20121;-70
2023/10/02 04:35:02;;;;;;;27.38;12.23;;;;;;;;;;2071490;28;20497;-69
2023/10/02 04:36:31;;;;;;;26.73;11.95;;;;;;;;;;2058232;28;20494;-70
2023/10/02 04:37:51;;;;;;;27.60;12.23;;;;;;;;;;2055496;28;20093;-69
2023/10/02 04:40:53;;;;;;;24.73;11.38;;;;;;;;;;2055311;28;20042;-69
2023/10/02 04:42:15;;;;;;;24.08;11.13;;;;;;;;;;2069448;28;20038;-70
2023/10/02 04:43:36;;;;;;;;;;;;;;;;;;2061610;28;20095;-69
2023/10/02 04:44:57;;;;;;;26.13;11.07;;;;;;;;;;2054484;28;19913;-70
2023/10/02 04:46:18;;;;;;;21.08;10.82;;;;;;;;;;2053422;28;20026;-70
2023/10/02 04:47:40;;;;;;;22.98;10.30;;;;;;;;;;2053814;28;20487;-70
2023/10/02 04:49:01;;;;;;;25.15;11.20;;;;;;;;;;2053328;28;20097;-69
2023/10/02 04:51:46;;;;;;;26.48;10.75;;;;;;;;;;2056388;28;20540;-69
2023/10/02 04:54:37;;;;;;;24.38;11.20;;;;;;;;;;2062952;28;20088;-69
2023/10/02 04:56:07;;;;;;;28.58;12.57;;;;;;;;;;2061967;28;20042;-70
2023/10/02 04:57:28;;;;;;;22.92;11.32;;;;;;;;;;2063972;28;20030;-69
2023/10/02 04:58:51;;;;;;;28.40;12.05;;;;;;;;;;2065649;28;20026;-71
2023/10/02 05:00:24;;;;;;;28.90;11.55;;;;;;;;;;2069545;28;20037;-69
2023/10/02 05:02:17;;;;;;;25.75;11.45;;;;;;;;;;2072990;28;20111;-70
2023/10/02 05:03:26;;;;;;;26.08;12.68;;;;;;;;;;2068364;28;20025;-70
2023/10/02 05:04:48;;;;;;;20.23;11.13;;;;;;;;;;2067985;28;20094;-68
2023/10/02 05:06:16;;;;;;;26.02;10.85;;;;;;;;;;2068797;28;20022;-72
2023/10/02 05:07:41;;;;;;;19.83;10.48;;;;;;;;;;2071650;28;20042;-72
2023/10/02 05:10:23;;;;;;;27.98;11.65;;;;;;;;;;2068365;28;20038;-73
2023/10/02 05:11:55;;;;;;;26.60;11.25;;;;;;;;;;2059862;28;20035;-73
2023/10/02 05:13:44;;;;;;;20.85;11.63;;;;;;;;;;2066770;28;20547;-73
2023/10/02 05:15:07;;;;;;;21.75;10.80;;;;;;;;;;2058976;28;20043;-76
2023/10/02 05:16:33;;;;;;;23.75;10.90;;;;;;;;;;2065829;28;20023;-73
2023/10/02 05:17:55;;;;;;;22.15;10.57;;;;;;;;;;2057405;28;20027;-74
2023/10/02 05:19:16;;;;;;;23.48;11.68;;;;;;;;;;2057774;28;20030;-73
2023/10/02 05:20:38;;;;;;;26.23;10.90;;;;;;;;;;2058319;28;20455;-74
2023/10/02 05:21:59;;;;;;;30.80;12.95;;;;;;;;;;2061241;28;20046;-74
2023/10/02 05:23:21;;;;;;;24.35;10.43;;;;;;;;;;2060994;28;20030;-74
2023/10/02 05:24:42;;;;;;;27.27;11.82;;;;;;;;;;2064479;28;20031;-73
2023/10/02 05:26:04;;;;;;;29.48;12.35;;;;;;;;;;2063856;28;20037;-73
2023/10/02 05:27:30;;;;;;;24.52;10.98;;;;;;;;;;2077935;28;20368;-75
2023/10/02 05:28:51;;;;;;;29.33;12.18;;;;;;;;;;2066513;28;20026;-73
2023/10/02 05:30:12;;;;;;;30.42;13.27;;;;;;;;;;2060207;28;20039;-73
2023/10/02 05:31:40;;;;;;;26.48;11.65;;;;;;;;;;2055680;28;20026;-74
2023/10/02 05:33:07;;;;;;;30.48;11.77;;;;;;;;;;2073140;28;20038;-74
2023/10/02 05:34:28;;;;;;;24.65;11.60;;;;;;;;;;2061958;28;20394;-73
2023/10/02 05:35:49;;;;;;;29.02;12.65;;;;;;;;;;2072767;28;20054;-73
2023/10/02 05:37:13;;;;;;;32.33;12.50;;;;;;;;;;2067387;28;20148;-74
2023/10/02 05:38:34;;;;;;;26.40;12.02;;;;;;;;;;2066577;28;20490;-74
2023/10/02 05:40:14;;;;;;;22.08;10.20;;;;;;;;;;2057369;28;20051;-74
2023/10/02 05:41:44;;;;;;;25.20;11.95;;;;;;;;;;2057387;28;20105;-73
2023/10/02 05:44:27;;;;;;;27.05;12.15;;;;;;;;;;2058408;28;20041;-74
2023/10/02 05:45:48;;;;;;;24.55;11.32;;;;;;;;;;2058754;28;20030;-73
2023/10/02 05:47:11;;;;;;;27.35;13.02;;;;;;;;;;2060917;28;20042;-73
2023/10/02 05:48:37;;;;;;;24.60;11.00;;;;;;;;;;2062121;28;20673;-73
2023/10/02 05:49:59;;;;;;;29.52;11.52;;;;;;;;;;2059779;28;20039;-74
2023/10/02 05:51:22;;;;;;;28.27;11.65;;;;;;;;;;2059546;28;20043;-74
2023/10/02 05:52:48;;;;;;;26.20;12.50;;;;;;;;;;2059636;28;20406;-73
2023/10/02 05:54:09;;;;;;;30.73;12.77;;;;;;;;;;2064771;28;20037;-74
2023/10/02 05:55:56;;;;;;;29.90;13.23;;;;;;;;;;2062409;28;20544;-75
2023/10/02 05:57:14;;;;;;;35.70;12.15;;;;;;;;;;2061445;28;20038;-73
2023/10/02 05:58:35;;;;;;;26.05;10.50;;;;;;;;;;2063637;28;20034;-74
2023/10/02 05:59:58;;;;;;;25.38;11.32;;;;;;;;;;2059498;28;20089;-73
2023/10/02 06:01:18;;;;;;;25.40;11.52;;;;;;;;;;2057976;28;20474;-73
2023/10/02 06:02:56;;;;;;;29.40;11.98;;;;;;;;;;2066871;28;20072;-73
2023/10/02 06:04:17;;;;;;;29.48;13.05;;;;;;;;;;2066032;28;20033;-71
2023/10/02 06:05:39;;;;;;;26.42;12.23;;;;;;;;;;2060508;28;20031;-73
2023/10/02 06:07:03;;;;;;;28.15;11.70;;;;;;;;;;2058637;28;20098;-73
2023/10/02 06:08:29;;;;;;;28.25;11.10;;;;;;;;;;2058288;28;20429;-73
2023/10/02 06:09:50;;;;;;;28.20;11.80;;;;;;;;;;2058493;28;20100;-72
2023/10/02 06:11:26;;;;;;;28.52;11.38;;;;;;;;;;2060362;28;20394;-73
2023/10/02 06:12:47;;;;;;;29.65;12.55;;;;;;;;;;2075507;28;20075;-73
2023/10/02 06:14:12;;;;;;;34.42;13.65;;;;;;;;;;2071292;28;20033;-73
2023/10/02 06:15:48;;;;;;;27.52;12.82;;;;;;;;;;2072364;28;20038;-73
2023/10/02 06:17:11;;;;;;;27.13;11.38;;;;;;;;;;2065800;28;20030;-78
2023/10/02 06:18:32;;;;;;;24.92;11.60;;;;;;;;;;2070074;28;20034;-74
2023/10/02 06:19:53;;;;;;;27.65;12.27;;;;;;;;;;2065087;28;20042;-76
2023/10/02 06:21:14;;;;;;;31.60;11.20;;;;;;;;;;2076196;28;20402;-74
2023/10/02 06:22:47;;;;;;;29.98;11.73;;;;;;;;;;2066929;28;20573;-78
2023/10/02 06:24:09;;;;;;;27.65;12.27;;;;;;;;;;2073612;28;20064;-78
2023/10/02 06:25:30;;;;;;;27.38;13.13;;;;;;;;;;2083432;28;20030;-79
2023/10/02 06:26:57;;;;;;;28.83;11.00;;;;;;;;;;2069852;28;20096;-75
2023/10/02 06:28:27;;;;;;;26.40;11.70;;;;;;;;;;2065494;28;20534;-79
2023/10/02 06:29:49;;;;;;;25.33;10.73;;;;;;;;;;2070269;28;20030;-79
2023/10/02 06:31:10;;;;;;;25.27;12.07;;;;;;;;;;2069600;28;20338;-79
2023/10/02 06:32:32;;;;;;;26.80;12.70;;;;;;;;;;2071074;28;20042;-79
2023/10/02 06:33:56;;;;;;;30.50;11.73;;;;;;;;;;2067678;28;20441;-78
2023/10/02 06:35:17;;;;;;;27.17;11.40;;;;;;;;;;2065547;28;20492;-79
2023/10/02 06:36:45;;;;;;;24.90;11.73;;;;;;;;;;2071007;28;20045;-79
2023/10/02 06:38:15;;;;;;;24.23;10.73;;;;;;;;;;2070611;28;20034;-79
2023/10/02 06:39:37;;;;;;;26.30;11.80;;;;;;;;;;2068002;28;20501;-79
2023/10/02 06:40:59;;;;;;;28.42;11.32;;;;;;;;;;2062182;28;20085;-75
2023/10/02 06:42:21;;;;;;;32.63;11.98;;;;;;;;;;2072473;28;20481;-79
2023/10/02 06:43:41;;;;;;;29.63;11.75;;;;;;;;;;2069058;28;20478;-79
2023/10/02 06:45:02;;;;;;;29.20;11.35;;;;;;;;;;2064844;28;20030;-79
2023/10/02 06:46:23;;;;;;;29.40;12.40;;;;;;;;;;2069524;28;20034;-78
2023/10/02 06:47:44;;;;;;;26.55;12.85;;;;;;;;;;2068483;28;20046;-74
2023/10/02 06:49:15;;;;;;;30.15;12.00;;;;;;;;;;2067357;28;20084;-79
2023/10/02 06:50:36;;;;;;;27.50;11.50;;;;;;;;;;2079975;28;20081;-79
2023/10/02 06:52:11;;;;;;;28.10;11.55;;;;;;;;;;2072262;28;20042;-76
2023/10/02 06:53:31;;;;;;;29.30;11.80;;;;;;;;;;2065898;28;20027;-72
2023/10/02 06:54:56;;;;;;;25.23;11.43;;;;;;;;;;2064206;28;20038;-77
2023/10/02 06:56:18;;;;;;;25.55;11.70;;;;;;;;;;2085984;28;20439;-80
2023/10/02 06:57:49;;;;;;;27.75;11.85;;;;;;;;;;2071969;28;20035;-79
2023/10/02 06:59:10;;;;;;;25.85;11.23;;;;;;;;;;2071388;28;20030;-78
2023/10/02 07:00:54;;;;;;;30.88;12.90;;;;;;;;;;2066597;28;20038;-78
2023/10/02 07:02:15;;;;;;;25.50;10.85;;;;;;;;;;2063958;28;20058;-79
2023/10/02 07:03:39;;;;;;;28.67;12.68;;;;;;;;;;2065481;28;20033;-78
2023/10/02 07:05:00;;;;;;;29.65;12.07;;;;;;;;;;2056328;28;20042;-77
2023/10/02 07:06:24;;;;;;;30.58;11.45;;;;;;;;;;2063689;28;20435;-75
2023/10/02 07:07:58;;;;;;;28.30;12.88;;;;;;;;;;2064965;28;20049;-79
2023/10/02 07:09:24;;;;;;;30.67;12.07;;;;;;;;;;2066463;28;20560;-78
2023/10/02 07:10:45;;;;;;;32.20;13.55;;;;;;;;;;2078142;28;20488;-79
2023/10/02 07:12:08;;;;;;;29.92;12.27;;;;;;;;;;2069324;28;20030;-76
2023/10/02 07:13:31;;;;;;;31.65;13.20;;;;;;;;;;2065050;28;20496;-79
2023/10/02 07:15:10;;;;;;;31.55;12.35;;;;;;;;;;2072909;28;20059;-79
2023/10/02 07:16:34;;;;;;;30.02;12.65;;;;;;;;;;2061508;28;20030;-79
2023/10/02 07:18:00;;;;;;;29.95;12.52;;;;;;;;;;2066065;28;20732;-79
2023/10/02 07:19:38;;;;;;;30.67;13.57;;;;;;;;;;2065779;28;20038;-79
2023/10/02 07:21:00;;;;;;;27.45;12.00;;;;;;;;;;2072582;28;20410;-78
2023/10/02 07:22:23;;;;;;;37.60;13.48;;;;;;;;;;2067092;28;20047;-79
2023/10/02 07:23:45;;;;;;;33.60;11.73;;;;;;;;;;2068053;28;20045;-79
2023/10/02 07:25:07;;;;;;;26.63;11.82;;;;;;;;;;2065157;28;20489;-79
2023/10/02 07:28:08;;;;;;;28.08;11.95;;;;;;;;;;2057715;28;20034;-80
2023/10/02 07:29:38;;;;;;;31.35;13.20;;;;;;;;;;2058500;28;20038;-79
2023/10/02 07:30:59;;;;;;;32.45;12.68;;;;;;;;;;2058125;28;20031;-78
2023/10/02 07:32:21;;;;;;;29.55;12.45;;;;;;;;;;2057200;28;20039;-79
2023/10/02 07:33:44;;;;;;;30.30;12.40;;;;;;;;;;2069335;28;20045;-79
2023/10/02 07:35:21;;;;;;;35.00;13.27;;;;;;;;;;2067896;28;20493;-79
2023/10/02 07:36:45;;;;;;;29.80;12.13;;;;;;;;;;2065193;28;20039;-78
2023/10/02 07:38:09;;;;;;;29.40;11.88;;;;;;;;;;2065294;28;20045;-80
2023/10/02 07:39:36;;;;;;;26.55;11.60;;;;;;;;;;2081147;28;20067;-80
2023/10/02 07:41:06;;;;;;;31.98;13.65;;;;;;;;;;2068770;28;20031;-79
2023/10/02 07:42:34;;;;;;;32.53;13.15;;;;;;;;;;2072539;28;20026;-80
2023/10/02 07:44:06;;;;;;;25.15;11.75;;;;;;;;;;2058876;28;20085;-79
2023/10/02 07:45:30;;;;;;;29.08;11.80;;;;;;;;;;2058712;28;20038;-79
2023/10/02 07:46:55;;;;;;;27.08;11.82;;;;;;;;;;2073812;28;20026;-78
2023/10/02 07:48:19;;;;;;;27.75;12.52;;;;;;;;;;2065188;28;20084;-79
2023/10/02 07:49:40;;;;;;;32.65;12.50;;;;;;;;;;2063952;28;20134;-80
2023/10/02 07:51:01;;;;;;;29.45;12.45;;;;;;;;;;2065314;28;20031;-79
2023/10/02 07:52:35;;;;;;;32.50;14.05;;;;;;;;;;2065184;28;20398;-78
2023/10/02 07:53:58;;;;;;;31.08;14.77;;;;;;;;;;2073185;28;21328;-78
2023/10/02 07:55:23;;;;;;;35.72;14.93;;;;;;;;;;2063867;28;20037;-79
2023/10/02 07:56:47;;;;;;;29.63;13.60;;;;;;;;;;2077313;28;20034;-79
2023/10/02 07:58:09;;;;;;;30.48;12.85;;;;;;;;;;2079220;28;20029;-76
2023/10/02 07:59:31;;;;;;;32.22;14.02;;;;;;;;;;2075765;28;20370;-79
2023/10/02 08:00:52;;;;;;;25.88;12.65;;;;;;;;;;2068189;28;20034;-78
2023/10/02 08:02:23;;;;;;;29.10;12.38;;;;;;;;;;2077680;28;20451;-78
2023/10/02 08:03:44;;;;;;;27.20;13.15;;;;;;;;;;2067833;28;20038;-77
2023/10/02 08:05:05;;;;;;;36.70;13.65;;;;;;;;;;2072952;28;20030;-79
2023/10/02 08:06:36;;;;;;;34.92;13.73;;;;;;;;;;2066554;28;20105;-79
2023/10/02 08:08:10;;;;;;;31.05;12.57;;;;;;;;;;2070795;28;20115;-79
2023/10/02 08:09:38;;;;;;;32.88;13.50;;;;;;;;;;2079986;28;20029;-76
2023/10/02 08:11:01;;;;;;;31.75;12.88;;;;;;;;;;2073696;28;20057;-75
2023/10/02 08:12:29;;;;;;;32.00;13.90;;;;;;;;;;2066931;28;20041;-76
2023/10/02 08:13:52;;;;;;;30.45;12.15;;;;;;;;;;2079989;28;20048;-80
2023/10/02 08:15:32;;;;;;;27.05;13.52;;;;;;;;;;2072768;28;20088;-80
2023/10/02 08:16:59;;;;;;;38.25;14.73;;;;;;;;;;2067071;28;20156;-73
2023/10/02 08:18:21;;;;;;;31.30;14.18;;;;;;;;;;2065864;28;20508;-79
2023/10/02 08:19:54;;;;;;;33.42;14.40;;;;;;;;;;2073001;28;20038;-81
2023/10/02 08:21:16;;;;;;;32.75;14.15;;;;;;;;;;2063706;28;20100;-77
2023/10/02 08:22:37;;;;;;;35.15;13.82;;;;;;;;;;2062401;28;20107;-79
2023/10/02 08:23:59;;;;;;;31.50;12.07;;;;;;;;;;2064463;28;20038;-76
2023/10/02 08:25:23;;;;;;;36.15;13.63;;;;;;;;;;2072297;28;20525;-78
2023/10/02 08:26:44;;;;;;;32.45;12.65;;;;;;;;;;2067072;28;20034;-75
2023/10/02 08:28:07;;;;;;;33.13;13.20;;;;;;;;;;2068412;28;20040;-78
2023/10/02 08:29:28;;;;;;;31.23;12.70;;;;;;;;;;2063468;28;20034;-76
2023/10/02 08:30:59;;;;;;;44.70;14.05;;;;;;;;;;2066525;28;20038;-80
2023/10/02 08:32:30;;;;;;;30.10;12.68;;;;;;;;;;2066288;28;20073;-78
2023/10/02 08:33:51;;;;;;;27.17;12.02;;;;;;;;;;2064646;28;20027;-78